createdAt,value
2019-03-20T00:01:43.626Z,3.30
2019-03-20T00:04:05.355Z,3.30
2019-03-20T00:06:31.373Z,3.30
2019-03-20T00:08:57.396Z,3.30
2019-03-20T00:11:43.288Z,3.20
2019-03-20T00:14:09.320Z,3.40
2019-03-20T00:16:35.332Z,3.20
2019-03-20T00:19:01.359Z,3.20
2019-03-20T00:21:27.376Z,3.20
2019-03-20T00:23:53.407Z,3.10
2019-03-20T00:26:19.415Z,3.10
2019-03-20T00:28:45.445Z,3.10
2019-03-20T00:31:11.455Z,3.00
2019-03-20T00:33:37.486Z,3.00
2019-03-20T00:36:03.603Z,3.00
2019-03-20T00:38:31.771Z,3.00
2019-03-20T00:40:57.783Z,3.00
2019-03-20T00:43:23.814Z,2.90
2019-03-20T00:45:49.823Z,2.90
2019-03-20T00:48:15.827Z,2.90
2019-03-20T00:50:41.860Z,2.90
2019-03-20T00:53:07.875Z,2.90
2019-03-20T00:55:33.915Z,2.80
2019-03-20T00:57:59.933Z,2.80
2019-03-20T01:00:26.061Z,2.80
2019-03-20T01:02:52.268Z,2.80
2019-03-20T01:05:19.635Z,2.80
2019-03-20T01:07:45.647Z,2.80
2019-03-20T01:10:18.240Z,2.60
2019-03-20T01:12:44.250Z,2.60
2019-03-20T01:15:10.283Z,2.60
2019-03-20T01:17:36.291Z,2.70
2019-03-20T01:20:05.227Z,2.70
2019-03-20T01:22:31.240Z,2.60
2019-03-20T01:24:57.280Z,2.70
2019-03-20T01:27:23.287Z,2.70
2019-03-20T01:29:49.315Z,2.70
2019-03-20T01:32:15.331Z,2.70
2019-03-20T01:34:41.359Z,2.70
2019-03-20T01:37:07.375Z,2.60
2019-03-20T01:39:33.408Z,2.60
2019-03-20T01:41:59.414Z,2.60
2019-03-20T01:44:25.458Z,2.60
2019-03-20T01:46:51.552Z,2.60
2019-03-20T01:49:17.579Z,2.60
2019-03-20T01:51:43.587Z,2.50
2019-03-20T01:54:09.621Z,2.60
2019-03-20T01:56:35.647Z,2.50
2019-03-20T01:59:01.660Z,2.50
2019-03-20T02:01:27.787Z,2.50
2019-03-20T02:03:53.792Z,2.50
2019-03-20T02:06:19.824Z,2.40
2019-03-20T02:08:45.836Z,2.40
2019-03-20T02:11:11.864Z,2.20
2019-03-20T02:13:37.879Z,2.20
2019-03-20T02:16:03.910Z,2.20
2019-03-20T02:18:29.928Z,2.20
2019-03-20T02:20:57.220Z,2.20
2019-03-20T02:23:23.285Z,2.20
2019-03-20T02:25:49.311Z,2.20
2019-03-20T02:28:15.333Z,2.20
2019-03-20T02:30:41.464Z,2.20
2019-03-20T02:33:07.476Z,2.20
2019-03-20T02:35:33.617Z,2.20
2019-03-20T02:37:59.709Z,2.20
2019-03-20T02:40:25.731Z,2.10
2019-03-20T02:42:51.745Z,2.10
2019-03-20T02:45:18.910Z,2.10
2019-03-20T02:47:44.927Z,2.10
2019-03-20T02:50:12.175Z,2.10
2019-03-20T02:52:38.276Z,2.00
2019-03-20T02:55:06.800Z,2.00
2019-03-20T02:57:32.832Z,2.00
2019-03-20T02:59:58.845Z,2.00
2019-03-20T03:02:24.878Z,2.00
2019-03-20T03:04:50.877Z,1.90
2019-03-20T03:07:16.899Z,2.00
2019-03-20T03:09:42.913Z,1.90
2019-03-20T03:12:09.075Z,2.00
2019-03-20T03:14:35.085Z,1.90
2019-03-20T03:17:01.252Z,1.70
2019-03-20T03:19:27.287Z,1.70
2019-03-20T03:21:53.321Z,1.60
2019-03-20T03:24:19.323Z,1.50
2019-03-20T03:26:45.371Z,1.30
2019-03-20T03:29:11.380Z,1.40
2019-03-20T03:31:37.522Z,1.30
2019-03-20T03:34:23.405Z,1.30
2019-03-20T03:36:49.442Z,1.30
2019-03-20T03:39:15.451Z,1.30
2019-03-20T03:41:41.477Z,1.30
2019-03-20T03:44:07.489Z,1.30
2019-03-20T03:46:33.519Z,1.40
2019-03-20T03:48:59.563Z,1.40
2019-03-20T03:51:25.667Z,1.40
2019-03-20T03:53:51.669Z,1.50
2019-03-20T03:56:17.696Z,1.50
2019-03-20T03:58:43.704Z,1.50
2019-03-20T04:01:09.728Z,1.60
2019-03-20T04:03:35.740Z,1.60
2019-03-20T04:06:01.778Z,1.60
2019-03-20T04:08:27.887Z,1.60
2019-03-20T04:10:53.896Z,1.60
2019-03-20T04:13:19.924Z,1.60
2019-03-20T04:15:46.036Z,1.60
2019-03-20T04:18:12.070Z,1.60
2019-03-20T04:20:38.066Z,1.60
2019-03-20T04:23:04.094Z,1.70
2019-03-20T04:25:30.108Z,1.60
2019-03-20T04:27:57.960Z,1.60
2019-03-20T04:30:24.065Z,1.60
2019-03-20T04:32:50.111Z,1.60
2019-03-20T04:35:16.145Z,1.60
2019-03-20T04:37:42.304Z,1.60
2019-03-20T04:40:13.849Z,1.50
2019-03-20T04:42:39.851Z,1.50
2019-03-20T04:45:08.763Z,1.20
2019-03-20T04:47:34.803Z,1.00
2019-03-20T04:50:00.911Z,1.00
2019-03-20T04:52:26.943Z,0.90
2019-03-20T04:54:53.006Z,1.00
2019-03-20T04:57:19.083Z,1.00
2019-03-20T04:59:45.096Z,1.00
2019-03-20T05:02:11.139Z,1.10
2019-03-20T05:04:37.148Z,1.20
2019-03-20T05:07:03.175Z,1.30
2019-03-20T05:09:29.188Z,1.30
2019-03-20T05:11:55.215Z,1.30
2019-03-20T05:14:21.226Z,1.30
2019-03-20T05:16:47.256Z,1.30
2019-03-20T05:19:13.268Z,1.30
2019-03-20T05:21:39.339Z,1.30
2019-03-20T05:24:05.352Z,1.20
2019-03-20T05:26:31.382Z,1.10
2019-03-20T05:28:57.403Z,1.10
2019-03-20T05:31:23.434Z,1.10
2019-03-20T05:33:49.448Z,1.10
2019-03-20T05:36:15.479Z,1.10
2019-03-20T05:38:41.494Z,1.10
2019-03-20T05:41:07.539Z,1.10
2019-03-20T05:43:33.550Z,1.10
2019-03-20T05:46:00.520Z,1.20
2019-03-20T05:48:26.591Z,1.20
2019-03-20T05:50:52.613Z,1.30
2019-03-20T05:53:18.674Z,1.40
2019-03-20T05:55:44.690Z,1.40
2019-03-20T05:58:10.773Z,1.40
2019-03-20T06:00:36.795Z,1.40
2019-03-20T06:03:02.854Z,1.50
2019-03-20T06:05:28.868Z,1.60
2019-03-20T06:07:54.932Z,1.50
2019-03-20T06:10:21.084Z,1.50
2019-03-20T06:12:47.113Z,1.50
2019-03-20T06:15:13.214Z,1.50
2019-03-20T06:17:39.257Z,1.60
2019-03-20T06:20:10.216Z,1.70
2019-03-20T06:22:36.250Z,1.80
2019-03-20T06:25:04.534Z,1.90
2019-03-20T06:27:30.836Z,2.00
2019-03-20T06:29:56.860Z,2.10
2019-03-20T06:32:22.910Z,2.10
2019-03-20T06:34:49.044Z,2.20
2019-03-20T06:37:15.217Z,2.20
2019-03-20T06:39:41.233Z,2.30
2019-03-20T06:42:07.286Z,2.30
2019-03-20T06:44:33.319Z,2.40
2019-03-20T06:46:59.400Z,2.40
2019-03-20T06:49:25.411Z,2.50
2019-03-20T06:51:51.448Z,2.60
2019-03-20T06:54:17.529Z,2.70
2019-03-20T06:56:43.572Z,2.80
2019-03-20T06:59:28.353Z,2.90
2019-03-20T07:01:54.797Z,3.00
2019-03-20T07:04:24.613Z,3.10
2019-03-20T07:07:06.535Z,3.10
2019-03-20T07:09:53.960Z,3.20
2019-03-20T07:12:20.016Z,3.00
2019-03-20T07:14:46.036Z,3.10
2019-03-20T07:17:12.083Z,3.20
2019-03-20T07:19:38.095Z,3.30
2019-03-20T07:22:04.112Z,3.40
2019-03-20T07:24:30.161Z,3.50
2019-03-20T07:26:56.179Z,3.50
2019-03-20T07:29:22.213Z,3.60
2019-03-20T07:31:48.228Z,3.70
2019-03-20T07:34:14.259Z,3.80
2019-03-20T07:36:40.276Z,3.90
2019-03-20T07:39:07.981Z,4.00
2019-03-20T07:41:34.017Z,4.10
2019-03-20T07:44:00.048Z,4.20
2019-03-20T07:46:26.067Z,4.30
2019-03-20T07:48:52.133Z,4.40
2019-03-20T07:51:18.153Z,4.60
2019-03-20T07:53:44.192Z,4.70
2019-03-20T07:56:10.208Z,4.70
2019-03-20T07:58:36.244Z,4.90
2019-03-20T08:01:02.481Z,5.00
2019-03-20T08:03:28.642Z,5.20
2019-03-20T08:05:54.647Z,5.30
2019-03-20T08:08:20.683Z,5.40
2019-03-20T08:10:46.704Z,5.60
2019-03-20T08:13:12.766Z,5.70
2019-03-20T08:15:38.783Z,5.80
2019-03-20T08:18:04.834Z,5.90
2019-03-20T08:20:30.860Z,6.10
2019-03-20T08:22:57.062Z,6.20
2019-03-20T08:25:23.079Z,6.30
2019-03-20T08:27:49.119Z,6.40
2019-03-20T08:30:17.896Z,6.40
2019-03-20T08:32:43.904Z,6.50
2019-03-20T08:35:11.340Z,6.60
2019-03-20T08:37:37.364Z,6.70
2019-03-20T08:40:08.958Z,6.80
2019-03-20T08:45:06.215Z,7.10
2019-03-20T08:49:59.539Z,7.40
2019-03-20T08:52:25.547Z,7.40
2019-03-20T08:54:51.579Z,7.50
2019-03-20T08:57:17.587Z,7.50
2019-03-20T08:59:43.611Z,7.60
2019-03-20T09:02:09.608Z,7.70
2019-03-20T09:04:35.877Z,7.90
2019-03-20T09:07:02.051Z,8.00
2019-03-20T09:09:28.075Z,8.20
2019-03-20T09:11:54.092Z,8.30
2019-03-20T09:14:20.120Z,8.50
2019-03-20T09:16:46.136Z,8.60
2019-03-20T09:19:12.216Z,8.70
2019-03-20T09:21:38.219Z,8.80
2019-03-20T09:24:04.247Z,8.90
2019-03-20T09:26:30.256Z,9.00
2019-03-20T09:28:56.283Z,9.10
2019-03-20T09:31:22.291Z,9.20
2019-03-20T09:33:48.343Z,9.40
2019-03-20T09:36:14.424Z,9.50
2019-03-20T09:38:43.635Z,9.50
2019-03-20T09:41:08.363Z,9.60
2019-03-20T09:43:34.393Z,9.70
2019-03-20T09:46:00.428Z,9.80
2019-03-20T09:48:26.444Z,9.90
2019-03-20T09:50:52.468Z,10.10
2019-03-20T09:53:18.489Z,10.10
2019-03-20T09:55:44.504Z,10.20
2019-03-20T09:58:11.765Z,10.30
2019-03-20T10:00:38.220Z,10.30
2019-03-20T10:03:04.231Z,10.40
2019-03-20T10:05:30.260Z,10.40
2019-03-20T10:07:56.282Z,10.50
2019-03-20T10:10:29.475Z,10.60
2019-03-20T10:12:55.483Z,10.70
2019-03-20T10:15:26.051Z,10.80
2019-03-20T10:17:52.191Z,10.90
2019-03-20T10:20:19.024Z,11.00
2019-03-20T10:22:45.040Z,11.10
2019-03-20T10:25:13.270Z,11.20
2019-03-20T10:27:39.388Z,11.10
2019-03-20T10:30:16.990Z,11.10
2019-03-20T10:32:43.007Z,11.20
2019-03-20T10:35:09.259Z,11.40
2019-03-20T10:37:35.268Z,11.50
2019-03-20T10:40:02.152Z,11.60
2019-03-20T10:42:28.163Z,11.70
2019-03-20T10:44:54.187Z,11.70
2019-03-20T10:47:20.199Z,11.80
2019-03-20T10:49:46.323Z,11.80
2019-03-20T10:52:12.338Z,11.90
2019-03-20T10:54:38.379Z,11.90
2019-03-20T10:57:04.392Z,11.90
2019-03-20T10:59:30.432Z,12.00
2019-03-20T11:01:56.439Z,12.00
2019-03-20T11:04:22.449Z,12.00
2019-03-20T11:06:48.519Z,12.00
2019-03-20T11:09:18.602Z,12.10
2019-03-20T11:11:42.463Z,12.10
2019-03-20T11:14:08.472Z,12.20
2019-03-20T11:16:34.523Z,12.30
2019-03-20T11:19:00.568Z,12.40
2019-03-20T11:21:26.681Z,12.50
2019-03-20T11:23:52.679Z,12.50
2019-03-20T11:26:18.710Z,12.60
2019-03-20T11:28:44.722Z,12.70
2019-03-20T11:31:10.750Z,12.80
2019-03-20T11:33:36.768Z,12.90
2019-03-20T11:36:03.002Z,13.00
2019-03-20T11:38:29.007Z,12.90
2019-03-20T11:40:55.037Z,12.90
2019-03-20T11:43:21.047Z,12.90
2019-03-20T11:45:47.084Z,12.90
2019-03-20T11:48:13.092Z,12.80
2019-03-20T11:50:42.935Z,12.90
2019-03-20T11:53:09.135Z,13.00
2019-03-20T11:55:35.665Z,13.00
2019-03-20T11:58:01.771Z,13.10
2019-03-20T12:00:27.815Z,13.20
2019-03-20T12:02:53.960Z,13.40
2019-03-20T12:05:20.088Z,13.40
2019-03-20T12:07:46.091Z,13.50
2019-03-20T12:10:15.228Z,13.60
2019-03-20T12:12:41.243Z,13.80
2019-03-20T12:15:08.976Z,13.80
2019-03-20T12:17:34.988Z,14.00
2019-03-20T12:20:01.910Z,14.00
2019-03-20T12:22:27.918Z,14.10
2019-03-20T12:24:53.942Z,14.20
2019-03-20T12:27:19.952Z,14.20
2019-03-20T12:29:45.976Z,14.20
2019-03-20T12:32:11.990Z,14.30
2019-03-20T12:34:38.023Z,14.30
2019-03-20T12:37:04.034Z,14.30
2019-03-20T12:42:08.081Z,14.30
2019-03-20T12:44:34.101Z,14.50
2019-03-20T12:47:00.163Z,14.50
2019-03-20T12:49:26.203Z,14.50
2019-03-20T12:51:52.223Z,14.50
2019-03-20T12:54:18.268Z,14.60
2019-03-20T12:56:44.271Z,14.70
2019-03-20T12:59:10.299Z,14.60
2019-03-20T13:01:36.315Z,14.60
2019-03-20T13:04:02.544Z,14.50
2019-03-20T13:06:28.665Z,14.60
2019-03-20T13:08:54.823Z,14.70
2019-03-20T13:11:20.835Z,14.80
2019-03-20T13:13:46.864Z,15.00
2019-03-20T13:16:12.911Z,15.00
2019-03-20T13:18:38.934Z,15.00
2019-03-20T13:21:04.945Z,15.00
2019-03-20T13:23:33.795Z,15.20
2019-03-20T13:26:00.852Z,15.20
2019-03-20T13:28:27.119Z,15.40
2019-03-20T13:31:06.278Z,15.40
2019-03-20T13:33:32.293Z,15.50
2019-03-20T13:35:58.353Z,15.40
2019-03-20T13:38:24.366Z,15.50
2019-03-20T13:40:50.395Z,15.40
2019-03-20T13:43:16.417Z,15.40
2019-03-20T13:45:42.444Z,15.30
2019-03-20T13:48:08.455Z,15.20
2019-03-20T13:50:34.482Z,15.20
2019-03-20T13:53:00.506Z,15.20
2019-03-20T13:55:26.532Z,15.10
2019-03-20T13:57:52.541Z,15.20
2019-03-20T14:00:23.939Z,15.30
2019-03-20T14:02:50.149Z,15.30
2019-03-20T14:05:16.177Z,15.50
2019-03-20T14:07:42.200Z,15.50
2019-03-20T14:10:24.607Z,15.50
2019-03-20T14:12:43.958Z,15.50
2019-03-20T14:15:11.299Z,15.30
2019-03-20T14:17:37.575Z,15.30
2019-03-20T14:20:09.923Z,15.20
2019-03-20T14:22:35.939Z,15.10
2019-03-20T14:25:04.069Z,15.00
2019-03-20T14:27:30.087Z,15.00
2019-03-20T14:29:56.128Z,14.80
2019-03-20T14:32:22.145Z,14.80
2019-03-20T14:34:48.167Z,14.70
2019-03-20T14:37:14.194Z,14.60
2019-03-20T14:39:40.219Z,14.50
2019-03-20T14:42:06.264Z,14.50
2019-03-20T14:44:32.323Z,14.50
2019-03-20T14:46:58.360Z,14.50
2019-03-20T14:49:24.423Z,14.40
2019-03-20T14:51:50.449Z,14.40
2019-03-20T14:54:16.459Z,14.30
2019-03-20T14:56:42.539Z,14.20
2019-03-20T14:59:08.555Z,14.20
2019-03-20T15:01:34.583Z,14.10
2019-03-20T15:04:00.623Z,14.10
2019-03-20T15:06:26.651Z,14.00
2019-03-20T15:08:52.672Z,13.90
2019-03-20T15:11:18.705Z,14.00
2019-03-20T15:13:44.715Z,14.00
2019-03-20T15:16:11.431Z,14.10
2019-03-20T15:18:37.434Z,14.10
2019-03-20T15:21:03.471Z,14.10
2019-03-20T15:23:29.488Z,14.00
2019-03-20T15:25:55.521Z,14.00
2019-03-20T15:28:21.532Z,14.00
2019-03-20T15:30:47.556Z,14.00
2019-03-20T15:33:13.592Z,13.90
2019-03-20T15:35:39.617Z,13.80
2019-03-20T15:38:05.629Z,13.80
2019-03-20T15:40:31.635Z,13.90
2019-03-20T15:42:57.677Z,13.90
2019-03-20T15:45:23.689Z,14.00
2019-03-20T15:47:49.715Z,13.90
2019-03-20T15:50:24.568Z,14.10
2019-03-20T15:52:50.595Z,15.00
2019-03-20T15:55:38.847Z,16.40
2019-03-20T15:58:04.909Z,17.70
2019-03-20T16:00:30.952Z,19.00
2019-03-20T16:03:09.056Z,19.80
2019-03-20T16:05:35.071Z,20.60
2019-03-20T16:08:01.103Z,21.40
2019-03-20T16:10:27.112Z,21.90
2019-03-20T16:12:53.143Z,21.80
2019-03-20T16:15:20.262Z,21.30
2019-03-20T16:17:46.301Z,20.80
2019-03-20T16:20:12.804Z,20.00
2019-03-20T16:22:38.892Z,19.10
2019-03-20T16:25:08.015Z,18.30
2019-03-20T16:27:34.045Z,17.90
2019-03-20T16:30:00.051Z,18.60
2019-03-20T16:32:26.143Z,19.60
2019-03-20T16:34:52.252Z,20.40
2019-03-20T16:37:18.351Z,20.90
2019-03-20T16:39:44.364Z,21.50
2019-03-20T16:42:10.391Z,21.80
2019-03-20T16:44:36.408Z,22.20
2019-03-20T16:47:02.444Z,22.50
2019-03-20T16:49:28.490Z,22.30
2019-03-20T16:51:54.503Z,22.10
2019-03-20T16:54:20.626Z,21.40
2019-03-20T16:56:46.673Z,20.60
2019-03-20T16:59:12.694Z,19.90
2019-03-20T17:01:38.732Z,19.20
2019-03-20T17:04:04.808Z,19.00
2019-03-20T17:06:30.852Z,18.60
2019-03-20T17:08:56.884Z,18.00
2019-03-20T17:11:30.306Z,17.50
2019-03-20T17:13:50.857Z,16.90
2019-03-20T17:16:16.868Z,16.30
2019-03-20T17:18:42.913Z,15.70
2019-03-20T17:21:08.949Z,15.10
2019-03-20T17:23:34.976Z,14.60
2019-03-20T17:26:01.001Z,14.30
2019-03-20T17:28:27.032Z,13.90
2019-03-20T17:30:53.478Z,13.70
2019-03-20T17:33:19.532Z,13.40
2019-03-20T17:35:45.553Z,13.10
2019-03-20T17:38:11.595Z,12.80
2019-03-20T17:40:37.638Z,12.60
2019-03-20T17:43:04.080Z,12.40
2019-03-20T17:45:31.103Z,12.20
2019-03-20T17:47:57.131Z,12.00
2019-03-20T17:50:25.976Z,11.90
2019-03-20T17:52:52.228Z,11.80
2019-03-20T17:55:18.343Z,11.70
2019-03-20T17:57:44.380Z,11.50
2019-03-20T18:00:16.184Z,11.40
2019-03-20T18:02:42.231Z,11.20
2019-03-20T18:05:08.463Z,11.10
2019-03-20T18:07:34.603Z,11.00
2019-03-20T18:10:00.622Z,10.90
2019-03-20T18:12:26.728Z,10.80
2019-03-20T18:14:52.811Z,10.70
2019-03-20T18:17:18.826Z,10.60
2019-03-20T18:19:44.873Z,10.50
2019-03-20T18:22:10.901Z,10.40
2019-03-20T18:24:36.958Z,10.30
2019-03-20T18:27:03.476Z,10.20
2019-03-20T18:29:29.525Z,10.10
2019-03-20T18:31:55.612Z,10.10
2019-03-20T18:34:21.684Z,9.90
2019-03-20T18:36:47.706Z,9.90
2019-03-20T18:39:13.768Z,9.80
2019-03-20T18:41:39.808Z,9.70
2019-03-20T18:44:05.850Z,9.60
2019-03-20T18:46:31.872Z,9.50
2019-03-20T18:48:58.013Z,9.50
2019-03-20T18:51:24.029Z,9.40
2019-03-20T18:53:50.098Z,9.30
2019-03-20T18:56:16.128Z,9.30
2019-03-20T18:58:42.180Z,9.20
2019-03-20T19:01:10.007Z,9.10
2019-03-20T19:03:39.962Z,9.00
2019-03-20T19:06:09.484Z,9.00
2019-03-20T19:08:35.626Z,8.90
2019-03-20T19:11:01.794Z,8.80
2019-03-20T19:13:27.932Z,8.80
2019-03-20T19:15:53.958Z,8.70
2019-03-20T19:18:20.090Z,8.60
2019-03-20T19:20:46.111Z,8.50
2019-03-20T19:23:12.125Z,8.40
2019-03-20T19:25:40.318Z,8.20
2019-03-20T19:28:06.333Z,8.20
2019-03-20T19:30:32.383Z,8.10
2019-03-20T19:32:58.411Z,8.10
2019-03-20T19:35:24.452Z,8.10
2019-03-20T19:37:50.466Z,8.00
2019-03-20T19:40:17.811Z,8.00
2019-03-20T19:42:43.831Z,8.00
2019-03-20T19:45:11.867Z,8.00
2019-03-20T19:47:37.888Z,8.00
2019-03-20T19:50:12.634Z,7.90
2019-03-20T19:52:38.654Z,7.90
2019-03-20T19:55:06.887Z,7.80
2019-03-20T19:57:32.913Z,7.80
2019-03-20T19:59:58.970Z,7.70
2019-03-20T20:02:24.998Z,7.60
2019-03-20T20:04:51.032Z,7.60
2019-03-20T20:07:17.050Z,7.50
2019-03-20T20:09:43.080Z,7.50
2019-03-20T20:12:09.111Z,7.50
2019-03-20T20:14:35.157Z,7.40
2019-03-20T20:17:01.220Z,7.40
2019-03-20T20:19:27.245Z,7.40
2019-03-20T20:21:53.256Z,7.40
2019-03-20T20:24:19.292Z,7.40
2019-03-20T20:26:45.335Z,7.30
2019-03-20T20:29:11.329Z,7.30
2019-03-20T20:31:37.371Z,7.30
2019-03-20T20:34:03.392Z,7.20
2019-03-20T20:36:29.449Z,7.20
2019-03-20T20:38:55.472Z,7.10
2019-03-20T20:41:21.536Z,7.10
2019-03-20T20:43:47.561Z,7.10
2019-03-20T20:46:13.590Z,7.00
2019-03-20T20:48:39.645Z,7.00
2019-03-20T20:51:05.685Z,6.90
2019-03-20T20:53:31.701Z,6.90
2019-03-20T20:55:57.848Z,6.90
2019-03-20T20:58:23.859Z,6.80
2019-03-20T21:00:50.291Z,6.80
2019-03-20T21:03:16.351Z,6.70
2019-03-20T21:05:42.449Z,6.70
2019-03-20T21:08:08.465Z,6.60
2019-03-20T21:10:34.501Z,6.60
2019-03-20T21:13:00.516Z,6.60
2019-03-20T21:15:33.277Z,6.50
2019-03-20T21:18:15.194Z,6.50
2019-03-20T21:21:03.012Z,6.50
2019-03-20T21:23:38.646Z,6.40
2019-03-20T21:26:17.808Z,6.40
2019-03-20T21:29:10.032Z,6.40
2019-03-20T21:31:44.607Z,6.30
2019-03-20T21:34:29.308Z,6.30
2019-03-20T21:37:08.272Z,6.20
2019-03-20T21:39:34.283Z,6.10
2019-03-20T21:42:37.867Z,6.20
2019-03-20T21:45:39.806Z,6.10
2019-03-20T21:48:05.808Z,6.00
2019-03-20T21:51:13.173Z,5.90
2019-03-20T21:53:51.959Z,5.90
2019-03-20T21:56:24.582Z,5.90
2019-03-20T21:59:03.691Z,5.80
2019-03-20T22:02:07.577Z,5.80
2019-03-20T22:04:33.587Z,5.80
2019-03-20T22:07:07.488Z,5.80
2019-03-20T22:09:52.597Z,5.80
2019-03-20T22:12:37.825Z,5.70
2019-03-20T22:15:24.530Z,5.60
2019-03-20T22:18:17.435Z,5.60
2019-03-20T22:20:56.329Z,5.60
2019-03-20T22:24:00.957Z,5.60
2019-03-20T22:26:36.169Z,5.50
2019-03-20T22:29:29.771Z,5.50
2019-03-20T22:32:28.544Z,5.50
2019-03-20T22:35:26.018Z,5.50
2019-03-20T22:37:53.346Z,5.50
2019-03-20T22:40:57.143Z,5.40
2019-03-20T22:43:44.961Z,5.30
2019-03-20T22:46:14.804Z,5.30
2019-03-20T22:48:53.407Z,5.30
2019-03-20T22:51:23.248Z,5.30
2019-03-20T22:54:21.652Z,5.20
2019-03-20T22:57:15.460Z,5.20
2019-03-20T22:59:41.488Z,5.20
2019-03-20T23:02:29.304Z,5.30
2019-03-20T23:04:57.727Z,5.20
2019-03-20T23:07:23.764Z,5.20
2019-03-20T23:09:49.780Z,5.20
2019-03-20T23:12:17.760Z,5.20
2019-03-20T23:14:43.740Z,5.00
2019-03-20T23:17:09.806Z,5.00
2019-03-20T23:19:37.395Z,5.00
2019-03-20T23:22:03.628Z,4.90
2019-03-20T23:24:29.634Z,5.00
2019-03-20T23:26:57.074Z,5.00
2019-03-20T23:29:23.094Z,4.90
2019-03-20T23:31:49.131Z,4.90
2019-03-20T23:34:15.135Z,4.90
2019-03-20T23:36:41.148Z,4.90
2019-03-20T23:39:07.179Z,4.90
2019-03-20T23:41:33.187Z,4.90
2019-03-20T23:43:59.212Z,4.80
2019-03-20T23:46:25.228Z,4.80
2019-03-20T23:48:56.706Z,4.80
2019-03-20T23:51:26.021Z,4.60
2019-03-20T23:53:52.848Z,4.40
2019-03-20T23:56:27.124Z,4.40
2019-03-20T23:58:53.163Z,4.40
